sensor_id;sensor_type;location;lat;lon;timestamp;pressure;altitude;pressure_sealevel;temperature;humidity
65175;BME280;51761;42.126;24.752;2022-09-09T00:09:28;99806.19;;;19.58;71.23
65175;BME280;51761;42.126;24.752;2022-09-09T00:12:02;99799.50;;;19.70;70.38
65175;BME280;51761;42.126;24.752;2022-09-09T00:14:51;99807.75;;;19.59;71.15
65175;BME280;51761;42.126;24.752;2022-09-09T00:22:38;99776.66;;;19.41;71.35
65175;BME280;51761;42.126;24.752;2022-09-09T00:25:19;99808.97;;;19.67;70.60
65175;BME280;51761;42.126;24.752;2022-09-09T00:27:49;99773.25;;;19.28;71.27
65175;BME280;51761;42.126;24.752;2022-09-09T00:30:32;99795.06;;;19.45;71.15
65175;BME280;51761;42.126;24.752;2022-09-09T00:33:03;99813.75;;;19.52;71.20
65175;BME280;51761;42.126;24.752;2022-09-09T00:35:45;99824.00;;;19.40;72.03
65175;BME280;51761;42.126;24.752;2022-09-09T00:38:19;99810.31;;;19.48;71.62
65175;BME280;51761;42.126;24.752;2022-09-09T00:40:55;99785.81;;;19.36;71.49
65175;BME280;51761;42.126;24.752;2022-09-09T00:43:32;99825.38;;;19.54;71.83
65175;BME280;51761;42.126;24.752;2022-09-09T00:51:39;99817.44;;;19.34;72.20
65175;BME280;51761;42.126;24.752;2022-09-09T00:57:10;99823.13;;;19.25;72.88
65175;BME280;51761;42.126;24.752;2022-09-09T01:02:39;99805.09;;;19.05;72.66
65175;BME280;51761;42.126;24.752;2022-09-09T01:05:17;99829.28;;;19.15;72.73
65175;BME280;51761;42.126;24.752;2022-09-09T01:07:47;99833.09;;;19.03;72.63
65175;BME280;51761;42.126;24.752;2022-09-09T01:10:50;99831.03;;;19.04;72.43
65175;BME280;51761;42.126;24.752;2022-09-09T01:13:30;99830.13;;;18.80;73.42
65175;BME280;51761;42.126;24.752;2022-09-09T01:15:58;99826.97;;;18.78;73.83
65175;BME280;51761;42.126;24.752;2022-09-09T01:18:29;99820.53;;;18.68;73.80
65175;BME280;51761;42.126;24.752;2022-09-09T01:28:59;99823.41;;;18.50;75.07
65175;BME280;51761;42.126;24.752;2022-09-09T01:32:37;99825.59;;;18.46;75.21
65175;BME280;51761;42.126;24.752;2022-09-09T01:34:32;99819.59;;;18.35;75.74
65175;BME280;51761;42.126;24.752;2022-09-09T01:37:03;99795.69;;;18.09;76.40
65175;BME280;51761;42.126;24.752;2022-09-09T01:39:33;99823.88;;;18.40;76.71
65175;BME280;51761;42.126;24.752;2022-09-09T01:42:01;99813.94;;;18.35;76.52
65175;BME280;51761;42.126;24.752;2022-09-09T01:44:27;99809.56;;;18.52;75.51
65175;BME280;51761;42.126;24.752;2022-09-09T01:46:53;99816.47;;;18.42;75.67
65175;BME280;51761;42.126;24.752;2022-09-09T01:49:19;99812.53;;;18.49;76.14
65175;BME280;51761;42.126;24.752;2022-09-09T01:51:48;99816.47;;;18.42;75.92
65175;BME280;51761;42.126;24.752;2022-09-09T01:54:14;99816.31;;;18.28;76.86
65175;BME280;51761;42.126;24.752;2022-09-09T01:56:55;99815.19;;;18.25;77.28
65175;BME280;51761;42.126;24.752;2022-09-09T02:02:48;99821.94;;;18.28;76.74
65175;BME280;51761;42.126;24.752;2022-09-09T02:05:36;99825.59;;;18.28;76.40
65175;BME280;51761;42.126;24.752;2022-09-09T02:08:08;99822.25;;;18.12;77.80
65175;BME280;51761;42.126;24.752;2022-09-09T02:13:17;99821.94;;;18.19;77.37
65175;BME280;51761;42.126;24.752;2022-09-09T02:15:52;99812.69;;;18.27;77.12
65175;BME280;51761;42.126;24.752;2022-09-09T02:18:26;99812.50;;;18.22;77.31
65175;BME280;51761;42.126;24.752;2022-09-09T02:20:53;99793.47;;;18.04;78.01
65175;BME280;51761;42.126;24.752;2022-09-09T02:23:19;99811.25;;;18.05;78.82
65175;BME280;51761;42.126;24.752;2022-09-09T02:25:46;99806.34;;;17.96;79.00
65175;BME280;51761;42.126;24.752;2022-09-09T02:28:14;99807.28;;;17.93;79.48
65175;BME280;51761;42.126;24.752;2022-09-09T02:30:42;99780.88;;;17.78;78.39
65175;BME280;51761;42.126;24.752;2022-09-09T02:33:13;99806.97;;;17.91;77.97
65175;BME280;51761;42.126;24.752;2022-09-09T02:35:40;99795.63;;;17.73;78.48
65175;BME280;51761;42.126;24.752;2022-09-09T02:38:10;99817.31;;;17.85;78.44
65175;BME280;51761;42.126;24.752;2022-09-09T02:40:37;99810.25;;;17.90;78.10
65175;BME280;51761;42.126;24.752;2022-09-09T02:43:03;99819.22;;;17.97;77.28
65175;BME280;51761;42.126;24.752;2022-09-09T02:45:41;99817.34;;;18.12;76.38
65175;BME280;51761;42.126;24.752;2022-09-09T02:53:27;99799.44;;;17.97;77.43
65175;BME280;51761;42.126;24.752;2022-09-09T02:56:07;99794.88;;;17.82;77.53
65175;BME280;51761;42.126;24.752;2022-09-09T02:58:35;99833.34;;;17.88;78.61
65175;BME280;51761;42.126;24.752;2022-09-09T03:01:01;99827.50;;;17.74;79.07
65175;BME280;51761;42.126;24.752;2022-09-09T03:03:28;99827.34;;;17.77;79.02
65175;BME280;51761;42.126;24.752;2022-09-09T03:05:54;99784.16;;;17.68;78.28
65175;BME280;51761;42.126;24.752;2022-09-09T03:08:20;99796.88;;;17.81;78.16
65175;BME280;51761;42.126;24.752;2022-09-09T03:10:45;99825.97;;;18.00;78.13
65175;BME280;51761;42.126;24.752;2022-09-09T03:13:11;99819.84;;;18.01;78.08
65175;BME280;51761;42.126;24.752;2022-09-09T03:15:38;99829.59;;;17.91;78.46
65175;BME280;51761;42.126;24.752;2022-09-09T03:18:03;99817.97;;;17.89;77.21
65175;BME280;51761;42.126;24.752;2022-09-09T03:20:29;99824.88;;;17.97;77.46
65175;BME280;51761;42.126;24.752;2022-09-09T03:22:55;99827.09;;;18.02;77.77
65175;BME280;51761;42.126;24.752;2022-09-09T03:25:22;99828.34;;;18.01;77.56
65175;BME280;51761;42.126;24.752;2022-09-09T03:27:52;99811.50;;;17.89;76.86
65175;BME280;51761;42.126;24.752;2022-09-09T03:30:24;99790.28;;;17.75;77.02
65175;BME280;51761;42.126;24.752;2022-09-09T03:32:50;99838.56;;;18.08;77.09
65175;BME280;51761;42.126;24.752;2022-09-09T03:35:16;99831.94;;;17.93;76.72
65175;BME280;51761;42.126;24.752;2022-09-09T03:37:42;99855.41;;;18.20;76.46
65175;BME280;51761;42.126;24.752;2022-09-09T03:40:08;99848.75;;;18.14;77.17
65175;BME280;51761;42.126;24.752;2022-09-09T03:42:35;99849.25;;;18.13;76.39
65175;BME280;51761;42.126;24.752;2022-09-09T03:45:06;99860.88;;;18.15;77.28
65175;BME280;51761;42.126;24.752;2022-09-09T03:47:34;99857.88;;;18.09;77.13
65175;BME280;51761;42.126;24.752;2022-09-09T03:50:00;99810.50;;;17.65;77.94
65175;BME280;51761;42.126;24.752;2022-09-09T03:52:25;99849.06;;;17.98;77.95
65175;BME280;51761;42.126;24.752;2022-09-09T03:54:52;99768.56;;;17.46;77.35
65175;BME280;51761;42.126;24.752;2022-09-09T03:57:18;99848.00;;;18.14;77.09
65175;BME280;51761;42.126;24.752;2022-09-09T03:59:44;99842.78;;;18.03;77.08
65175;BME280;51761;42.126;24.752;2022-09-09T04:02:10;99845.28;;;18.01;77.41
65175;BME280;51761;42.126;24.752;2022-09-09T04:04:35;99853.31;;;18.03;76.65
65175;BME280;51761;42.126;24.752;2022-09-09T04:07:01;99843.09;;;18.14;76.76
65175;BME280;51761;42.126;24.752;2022-09-09T04:09:27;99818.13;;;17.95;75.96
65175;BME280;51761;42.126;24.752;2022-09-09T04:11:52;99817.03;;;18.01;76.21
65175;BME280;51761;42.126;24.752;2022-09-09T04:14:19;99826.94;;;18.06;76.64
65175;BME280;51761;42.126;24.752;2022-09-09T04:16:45;99844.53;;;18.19;76.83
65175;BME280;51761;42.126;24.752;2022-09-09T04:19:12;99843.28;;;18.11;77.04
65175;BME280;51761;42.126;24.752;2022-09-09T04:21:40;99833.53;;;18.12;77.14
65175;BME280;51761;42.126;24.752;2022-09-09T04:24:07;99848.47;;;18.21;76.93
65175;BME280;51761;42.126;24.752;2022-09-09T04:26:34;99810.75;;;17.97;76.99
65175;BME280;51761;42.126;24.752;2022-09-09T04:29:00;99813.13;;;18.08;77.03
65175;BME280;51761;42.126;24.752;2022-09-09T04:31:25;99841.75;;;18.28;76.60
65175;BME280;51761;42.126;24.752;2022-09-09T04:33:51;99842.84;;;18.39;76.21
65175;BME280;51761;42.126;24.752;2022-09-09T04:36:18;99816.72;;;18.08;76.30
65175;BME280;51761;42.126;24.752;2022-09-09T04:38:45;99817.34;;;18.12;76.41
65175;BME280;51761;42.126;24.752;2022-09-09T04:41:11;99829.97;;;18.29;76.17
65175;BME280;51761;42.126;24.752;2022-09-09T04:43:38;99753.25;;;17.82;76.62
65175;BME280;51761;42.126;24.752;2022-09-09T04:46:03;99846.66;;;18.54;75.87
65175;BME280;51761;42.126;24.752;2022-09-09T04:48:29;99851.03;;;18.55;75.36
65175;BME280;51761;42.126;24.752;2022-09-09T04:51:01;99856.38;;;18.62;75.54
65175;BME280;51761;42.126;24.752;2022-09-09T04:53:28;99858.75;;;18.64;75.55
65175;BME280;51761;42.126;24.752;2022-09-09T04:56:02;99864.56;;;18.69;75.23
65175;BME280;51761;42.126;24.752;2022-09-09T04:58:28;99844.13;;;18.65;75.35
65175;BME280;51761;42.126;24.752;2022-09-09T05:00:54;99879.47;;;18.79;74.42
65175;BME280;51761;42.126;24.752;2022-09-09T05:03:19;99854.19;;;18.57;75.08
65175;BME280;51761;42.126;24.752;2022-09-09T05:05:45;99871.63;;;18.65;75.42
65175;BME280;51761;42.126;24.752;2022-09-09T05:08:10;99863.00;;;18.77;74.69
65175;BME280;51761;42.126;24.752;2022-09-09T05:10:38;99878.22;;;18.80;73.82
65175;BME280;51761;42.126;24.752;2022-09-09T05:13:04;99848.06;;;18.68;73.63
65175;BME280;51761;42.126;24.752;2022-09-09T05:15:30;99845.72;;;18.75;72.62
65175;BME280;51761;42.126;24.752;2022-09-09T05:17:58;99878.06;;;19.01;71.67
65175;BME280;51761;42.126;24.752;2022-09-09T05:20:24;99859.81;;;19.02;69.98
65175;BME280;51761;42.126;24.752;2022-09-09T05:22:53;99857.44;;;19.10;70.46
65175;BME280;51761;42.126;24.752;2022-09-09T05:25:19;99864.34;;;19.26;69.05
65175;BME280;51761;42.126;24.752;2022-09-09T05:27:44;99848.47;;;19.29;69.38
65175;BME280;51761;42.126;24.752;2022-09-09T05:30:10;99830.72;;;19.20;68.79
65175;BME280;51761;42.126;24.752;2022-09-09T05:32:36;99849.03;;;19.42;68.57
65175;BME280;51761;42.126;24.752;2022-09-09T05:35:02;99838.63;;;19.48;67.61
65175;BME280;51761;42.126;24.752;2022-09-09T05:37:27;99870.91;;;19.83;66.17
65175;BME280;51761;42.126;24.752;2022-09-09T05:39:54;99835.53;;;19.78;66.85
65175;BME280;51761;42.126;24.752;2022-09-09T05:42:20;99860.91;;;20.05;66.38
65175;BME280;51761;42.126;24.752;2022-09-09T05:44:45;99865.81;;;20.28;65.95
65175;BME280;51761;42.126;24.752;2022-09-09T05:47:11;99870.38;;;20.49;65.52
65175;BME280;51761;42.126;24.752;2022-09-09T05:49:36;99838.84;;;20.71;63.17
65175;BME280;51761;42.126;24.752;2022-09-09T05:52:02;99840.09;;;21.22;61.92
65175;BME280;51761;42.126;24.752;2022-09-09T05:54:29;99860.84;;;22.40;58.37
65175;BME280;51761;42.126;24.752;2022-09-09T05:56:55;99851.50;;;23.25;54.52
65175;BME280;51761;42.126;24.752;2022-09-09T05:59:20;99806.63;;;23.82;53.26
65175;BME280;51761;42.126;24.752;2022-09-09T06:01:48;99841.88;;;24.62;51.30
65175;BME280;51761;42.126;24.752;2022-09-09T06:04:13;99861.06;;;25.31;49.05
65175;BME280;51761;42.126;24.752;2022-09-09T06:06:39;99856.38;;;26.16;46.70
65175;BME280;51761;42.126;24.752;2022-09-09T06:09:08;99839.66;;;26.42;45.65
65175;BME280;51761;42.126;24.752;2022-09-09T06:11:36;99801.78;;;25.87;46.60
65175;BME280;51761;42.126;24.752;2022-09-09T06:14:02;99832.91;;;26.96;44.27
65175;BME280;51761;42.126;24.752;2022-09-09T06:16:29;99806.16;;;27.23;43.72
65175;BME280;51761;42.126;24.752;2022-09-09T06:18:58;99807.78;;;27.48;43.68
65175;BME280;51761;42.126;24.752;2022-09-09T06:21:24;99848.63;;;27.94;42.61
65175;BME280;51761;42.126;24.752;2022-09-09T06:23:51;99833.59;;;28.79;40.20
65175;BME280;51761;42.126;24.752;2022-09-09T06:26:20;99840.44;;;29.31;40.91
65175;BME280;51761;42.126;24.752;2022-09-09T06:28:47;99827.41;;;29.12;40.18
65175;BME280;51761;42.126;24.752;2022-09-09T06:31:15;99833.63;;;29.16;39.00
65175;BME280;51761;42.126;24.752;2022-09-09T06:33:46;99822.63;;;29.33;39.15
65175;BME280;51761;42.126;24.752;2022-09-09T06:36:23;99844.97;;;29.89;37.95
65175;BME280;51761;42.126;24.752;2022-09-09T06:38:49;99835.97;;;29.67;37.78
65175;BME280;51761;42.126;24.752;2022-09-09T06:41:17;99858.06;;;29.90;38.61
65175;BME280;51761;42.126;24.752;2022-09-09T06:43:44;99841.25;;;29.94;37.67
65175;BME280;51761;42.126;24.752;2022-09-09T06:46:15;99859.44;;;29.71;38.86
65175;BME280;51761;42.126;24.752;2022-09-09T06:48:42;99853.06;;;29.46;39.50
65175;BME280;51761;42.126;24.752;2022-09-09T06:51:20;99837.34;;;29.29;40.95
65175;BME280;51761;42.126;24.752;2022-09-09T06:53:47;99855.69;;;29.76;37.56
65175;BME280;51761;42.126;24.752;2022-09-09T06:56:37;99865.28;;;29.97;37.72
65175;BME280;51761;42.126;24.752;2022-09-09T06:59:05;99863.19;;;29.97;37.73
65175;BME280;51761;42.126;24.752;2022-09-09T07:01:40;99858.31;;;29.92;38.23
65175;BME280;51761;42.126;24.752;2022-09-09T07:04:06;99846.38;;;29.70;38.11
65175;BME280;51761;42.126;24.752;2022-09-09T07:06:38;99856.53;;;29.58;39.01
65175;BME280;51761;42.126;24.752;2022-09-09T07:09:07;99861.84;;;29.54;38.93
65175;BME280;51761;42.126;24.752;2022-09-09T07:12:00;99862.69;;;29.80;38.80
65175;BME280;51761;42.126;24.752;2022-09-09T07:14:25;99849.03;;;29.68;38.53
65175;BME280;51761;42.126;24.752;2022-09-09T07:16:51;99853.75;;;29.97;38.65
65175;BME280;51761;42.126;24.752;2022-09-09T07:19:17;99833.44;;;30.08;37.89
65175;BME280;51761;42.126;24.752;2022-09-09T07:21:42;99857.94;;;30.40;37.73
65175;BME280;51761;42.126;24.752;2022-09-09T07:24:08;99838.72;;;30.04;37.62
65175;BME280;51761;42.126;24.752;2022-09-09T07:26:35;99853.06;;;30.22;37.67
65175;BME280;51761;42.126;24.752;2022-09-09T07:29:01;99861.28;;;30.70;36.88
65175;BME280;51761;42.126;24.752;2022-09-09T07:31:32;99835.88;;;30.95;35.78
65175;BME280;51761;42.126;24.752;2022-09-09T07:33:59;99840.34;;;30.70;36.40
65175;BME280;51761;42.126;24.752;2022-09-09T07:36:31;99849.44;;;30.35;36.85
65175;BME280;51761;42.126;24.752;2022-09-09T07:39:03;99854.88;;;30.64;36.82
65175;BME280;51761;42.126;24.752;2022-09-09T07:44:00;99831.69;;;30.57;36.26
65175;BME280;51761;42.126;24.752;2022-09-09T07:46:28;99854.19;;;31.10;34.86
65175;BME280;51761;42.126;24.752;2022-09-09T07:48:56;99853.63;;;30.86;35.35
65175;BME280;51761;42.126;24.752;2022-09-09T07:51:25;99858.06;;;31.00;35.15
65175;BME280;51761;42.126;24.752;2022-09-09T07:53:53;99810.81;;;30.77;36.03
65175;BME280;51761;42.126;24.752;2022-09-09T07:56:19;99793.53;;;30.77;35.60
65175;BME280;51761;42.126;24.752;2022-09-09T07:58:49;99837.84;;;31.13;36.00
65175;BME280;51761;42.126;24.752;2022-09-09T08:01:23;99833.19;;;31.43;35.09
65175;BME280;51761;42.126;24.752;2022-09-09T08:03:58;99832.91;;;31.67;34.86
65175;BME280;51761;42.126;24.752;2022-09-09T08:06:26;99809.06;;;31.74;34.38
65175;BME280;51761;42.126;24.752;2022-09-09T08:08:52;99833.72;;;31.95;33.34
65175;BME280;51761;42.126;24.752;2022-09-09T08:11:19;99834.09;;;31.92;32.92
65175;BME280;51761;42.126;24.752;2022-09-09T08:13:45;99803.13;;;32.20;32.87
65175;BME280;51761;42.126;24.752;2022-09-09T08:16:14;99802.81;;;32.11;32.89
65175;BME280;51761;42.126;24.752;2022-09-09T08:18:40;99804.69;;;32.57;31.97
65175;BME280;51761;42.126;24.752;2022-09-09T08:21:18;99828.41;;;32.07;33.78
65175;BME280;51761;42.126;24.752;2022-09-09T08:23:45;99794.59;;;31.94;33.35
65175;BME280;51761;42.126;24.752;2022-09-09T08:26:21;99827.38;;;31.09;34.59
65175;BME280;51761;42.126;24.752;2022-09-09T08:28:48;99818.03;;;30.44;35.77
65175;BME280;51761;42.126;24.752;2022-09-09T08:31:21;99788.88;;;29.33;36.74
65175;BME280;51761;42.126;24.752;2022-09-09T08:33:47;99822.38;;;29.49;37.83
65175;BME280;51761;42.126;24.752;2022-09-09T08:36:19;99805.25;;;29.56;38.20
65175;BME280;51761;42.126;24.752;2022-09-09T08:38:53;99817.00;;;30.03;37.11
65175;BME280;51761;42.126;24.752;2022-09-09T08:58:21;99807.41;;;30.26;36.58
65175;BME280;51761;42.126;24.752;2022-09-09T09:06:42;99803.22;;;29.83;37.92
65175;BME280;51761;42.126;24.752;2022-09-09T09:12:00;99793.75;;;30.27;37.58
65175;BME280;51761;42.126;24.752;2022-09-09T09:14:29;99782.13;;;30.58;37.39
65175;BME280;51761;42.126;24.752;2022-09-09T09:17:06;99774.19;;;30.85;36.43
65175;BME280;51761;42.126;24.752;2022-09-09T09:19:35;99772.56;;;31.09;36.33
65175;BME280;51761;42.126;24.752;2022-09-09T09:22:21;99759.81;;;31.59;34.51
65175;BME280;51761;42.126;24.752;2022-09-09T09:24:54;99775.94;;;31.95;35.48
65175;BME280;51761;42.126;24.752;2022-09-09T09:30:23;99742.91;;;32.11;34.22
65175;BME280;51761;42.126;24.752;2022-09-09T09:32:58;99760.47;;;32.13;33.54
65175;BME280;51761;42.126;24.752;2022-09-09T09:35:25;99755.41;;;32.06;33.35
65175;BME280;51761;42.126;24.752;2022-09-09T09:37:52;99743.19;;;31.72;33.93
65175;BME280;51761;42.126;24.752;2022-09-09T09:40:19;99749.25;;;31.82;33.77
65175;BME280;51761;42.126;24.752;2022-09-09T09:43:18;99743.28;;;32.08;34.35
65175;BME280;51761;42.126;24.752;2022-09-09T09:45:45;99709.78;;;32.12;33.75
65175;BME280;51761;42.126;24.752;2022-09-09T09:48:12;99745.56;;;32.30;33.28
65175;BME280;51761;42.126;24.752;2022-09-09T09:53:30;99736.28;;;31.96;34.04
65175;BME280;51761;42.126;24.752;2022-09-09T09:56:05;99705.72;;;31.80;33.61
65175;BME280;51761;42.126;24.752;2022-09-09T09:58:46;99715.31;;;31.75;33.98
65175;BME280;51761;42.126;24.752;2022-09-09T10:01:25;99723.31;;;31.89;34.40
65175;BME280;51761;42.126;24.752;2022-09-09T10:04:13;99726.06;;;32.23;34.40
65175;BME280;51761;42.126;24.752;2022-09-09T10:06:41;99722.63;;;32.32;34.14
65175;BME280;51761;42.126;24.752;2022-09-09T10:09:28;99682.63;;;32.51;34.73
65175;BME280;51761;42.126;24.752;2022-09-09T10:17:36;99698.81;;;33.04;33.59
65175;BME280;51761;42.126;24.752;2022-09-09T10:22:35;99706.22;;;33.35;33.60
65175;BME280;51761;42.126;24.752;2022-09-09T10:27:57;99695.88;;;32.89;33.82
65175;BME280;51761;42.126;24.752;2022-09-09T10:36:25;99702.56;;;31.98;34.74
65175;BME280;51761;42.126;24.752;2022-09-09T10:42:28;99689.88;;;32.01;35.08
65175;BME280;51761;42.126;24.752;2022-09-09T10:53:08;99683.41;;;32.51;35.00
65175;BME280;51761;42.126;24.752;2022-09-09T10:55:49;99664.56;;;32.65;35.10
65175;BME280;51761;42.126;24.752;2022-09-09T10:58:35;99681.25;;;33.02;34.65
65175;BME280;51761;42.126;24.752;2022-09-09T11:01:13;99672.06;;;33.26;33.54
65175;BME280;51761;42.126;24.752;2022-09-09T11:03:42;99643.81;;;33.04;34.34
65175;BME280;51761;42.126;24.752;2022-09-09T11:06:17;99679.34;;;33.04;33.44
65175;BME280;51761;42.126;24.752;2022-09-09T11:08:45;99668.53;;;33.05;33.99
65175;BME280;51761;42.126;24.752;2022-09-09T11:11:22;99636.69;;;33.05;33.21
65175;BME280;51761;42.126;24.752;2022-09-09T11:18:49;99658.31;;;33.04;34.14
65175;BME280;51761;42.126;24.752;2022-09-09T11:21:39;99663.75;;;33.30;33.92
65175;BME280;51761;42.126;24.752;2022-09-09T11:24:13;99655.78;;;33.08;34.27
65175;BME280;51761;42.126;24.752;2022-09-09T11:26:51;99615.63;;;32.82;33.83
65175;BME280;51761;42.126;24.752;2022-09-09T11:29:26;99636.44;;;32.73;34.20
65175;BME280;51761;42.126;24.752;2022-09-09T11:42:39;99625.28;;;33.67;33.27
65175;BME280;51761;42.126;24.752;2022-09-09T11:45:31;99629.13;;;33.84;33.55
65175;BME280;51761;42.126;24.752;2022-09-09T11:48:00;99623.19;;;33.67;33.77
65175;BME280;51761;42.126;24.752;2022-09-09T11:50:27;99620.31;;;33.37;34.36
65175;BME280;51761;42.126;24.752;2022-09-09T11:55:39;99593.09;;;33.03;34.36
65175;BME280;51761;42.126;24.752;2022-09-09T12:00:48;99604.66;;;32.95;34.84
65175;BME280;51761;42.126;24.752;2022-09-09T12:05:58;99606.41;;;33.36;33.44
65175;BME280;51761;42.126;24.752;2022-09-09T12:08:28;99597.53;;;33.34;33.19
65175;BME280;51761;42.126;24.752;2022-09-09T12:10:57;99565.69;;;33.11;33.49
65175;BME280;51761;42.126;24.752;2022-09-09T12:13:26;99587.13;;;33.23;33.78
65175;BME280;51761;42.126;24.752;2022-09-09T12:15:54;99585.56;;;32.92;34.04
65175;BME280;51761;42.126;24.752;2022-09-09T12:18:25;99574.56;;;32.91;33.89
65175;BME280;51761;42.126;24.752;2022-09-09T12:26:34;99581.94;;;32.27;34.59
65175;BME280;51761;42.126;24.752;2022-09-09T12:31:49;99559.88;;;32.09;35.37
65175;BME280;51761;42.126;24.752;2022-09-09T12:34:43;99568.69;;;32.46;35.64
65175;BME280;51761;42.126;24.752;2022-09-09T12:40:01;99562.09;;;31.88;35.70
65175;BME280;51761;42.126;24.752;2022-09-09T12:42:28;99559.00;;;31.86;36.25
65175;BME280;51761;42.126;24.752;2022-09-09T12:45:01;99561.28;;;31.80;36.61
65175;BME280;51761;42.126;24.752;2022-09-09T12:47:57;99548.16;;;31.71;35.58
65175;BME280;51761;42.126;24.752;2022-09-09T12:50:29;99537.16;;;31.34;36.53
65175;BME280;51761;42.126;24.752;2022-09-09T12:52:58;99538.63;;;31.28;36.73
65175;BME280;51761;42.126;24.752;2022-09-09T12:55:28;99545.25;;;31.36;37.30
65175;BME280;51761;42.126;24.752;2022-09-09T12:57:56;99551.72;;;31.29;37.61
65175;BME280;51761;42.126;24.752;2022-09-09T13:00:25;99514.25;;;31.08;38.33
65175;BME280;51761;42.126;24.752;2022-09-09T13:02:55;99539.22;;;31.26;37.77
65175;BME280;51761;42.126;24.752;2022-09-09T13:05:26;99531.34;;;31.62;37.16
65175;BME280;51761;42.126;24.752;2022-09-09T13:07:59;99529.88;;;32.19;35.54
65175;BME280;51761;42.126;24.752;2022-09-09T13:10:29;99512.00;;;32.36;35.37
65175;BME280;51761;42.126;24.752;2022-09-09T13:12:56;99527.78;;;32.20;35.20
65175;BME280;51761;42.126;24.752;2022-09-09T13:15:24;99528.47;;;32.13;36.20
65175;BME280;51761;42.126;24.752;2022-09-09T13:18:01;99517.72;;;32.13;36.15
65175;BME280;51761;42.126;24.752;2022-09-09T13:20:29;99485.13;;;32.05;36.24
65175;BME280;51761;42.126;24.752;2022-09-09T13:22:56;99484.81;;;32.39;36.97
65175;BME280;51761;42.126;24.752;2022-09-09T13:25:29;99501.81;;;32.57;36.19
65175;BME280;51761;42.126;24.752;2022-09-09T13:28:03;99486.38;;;32.25;36.20
65175;BME280;51761;42.126;24.752;2022-09-09T13:30:34;99522.56;;;32.18;36.73
65175;BME280;51761;42.126;24.752;2022-09-09T13:38:20;99497.91;;;32.25;37.25
65175;BME280;51761;42.126;24.752;2022-09-09T13:41:01;99498.47;;;32.16;37.75
65175;BME280;51761;42.126;24.752;2022-09-09T13:43:32;99466.38;;;31.84;38.30
65175;BME280;51761;42.126;24.752;2022-09-09T13:46:02;99494.81;;;31.72;39.46
65175;BME280;51761;42.126;24.752;2022-09-09T13:48:28;99492.31;;;31.69;38.63
65175;BME280;51761;42.126;24.752;2022-09-09T13:51:03;99486.47;;;31.61;39.26
65175;BME280;51761;42.126;24.752;2022-09-09T13:53:32;99481.63;;;31.49;39.13
65175;BME280;51761;42.126;24.752;2022-09-09T13:55:58;99476.91;;;31.66;37.38
65175;BME280;51761;42.126;24.752;2022-09-09T13:58:24;99456.19;;;31.90;36.74
65175;BME280;51761;42.126;24.752;2022-09-09T14:00:52;99474.34;;;32.06;37.93
65175;BME280;51761;42.126;24.752;2022-09-09T14:03:18;99465.25;;;31.94;37.99
65175;BME280;51761;42.126;24.752;2022-09-09T14:05:45;99486.97;;;31.80;38.76
65175;BME280;51761;42.126;24.752;2022-09-09T14:08:20;99413.63;;;31.40;38.37
65175;BME280;51761;42.126;24.752;2022-09-09T14:10:46;99485.25;;;31.77;37.86
65175;BME280;51761;42.126;24.752;2022-09-09T14:13:12;99473.88;;;31.79;37.48
65175;BME280;51761;42.126;24.752;2022-09-09T14:15:38;99447.47;;;31.32;37.39
65175;BME280;51761;42.126;24.752;2022-09-09T14:18:04;99471.50;;;31.27;37.83
65175;BME280;51761;42.126;24.752;2022-09-09T14:20:29;99465.44;;;31.11;37.80
65175;BME280;51761;42.126;24.752;2022-09-09T14:22:55;99458.28;;;30.84;38.39
65175;BME280;51761;42.126;24.752;2022-09-09T14:25:22;99467.59;;;30.69;39.18
65175;BME280;51761;42.126;24.752;2022-09-09T14:27:48;99470.78;;;30.58;39.31
65175;BME280;51761;42.126;24.752;2022-09-09T14:30:14;99469.69;;;30.48;39.77
65175;BME280;51761;42.126;24.752;2022-09-09T14:32:39;99451.03;;;30.21;41.49
65175;BME280;51761;42.126;24.752;2022-09-09T14:35:05;99454.13;;;30.23;39.72
65175;BME280;51761;42.126;24.752;2022-09-09T14:37:31;99451.44;;;30.25;40.26
65175;BME280;51761;42.126;24.752;2022-09-09T14:39:57;99457.00;;;30.23;40.17
65175;BME280;51761;42.126;24.752;2022-09-09T14:42:22;99461.97;;;30.23;40.94
65175;BME280;51761;42.126;24.752;2022-09-09T14:44:48;99441.69;;;29.95;41.02
65175;BME280;51761;42.126;24.752;2022-09-09T14:47:14;99460.72;;;30.11;40.82
65175;BME280;51761;42.126;24.752;2022-09-09T14:49:39;99448.81;;;30.14;40.74
65175;BME280;51761;42.126;24.752;2022-09-09T14:52:05;99434.81;;;29.98;40.94
65175;BME280;51761;42.126;24.752;2022-09-09T14:54:31;99450.16;;;30.13;40.61
65175;BME280;51761;42.126;24.752;2022-09-09T14:56:58;99444.56;;;29.95;40.75
65175;BME280;51761;42.126;24.752;2022-09-09T14:59:24;99453.81;;;29.80;41.39
65175;BME280;51761;42.126;24.752;2022-09-09T15:01:49;99450.81;;;29.86;41.76
65175;BME280;51761;42.126;24.752;2022-09-09T15:04:15;99451.56;;;29.86;41.21
65175;BME280;51761;42.126;24.752;2022-09-09T15:06:42;99456.16;;;29.82;41.71
65175;BME280;51761;42.126;24.752;2022-09-09T15:09:09;99459.47;;;29.86;41.62
65175;BME280;51761;42.126;24.752;2022-09-09T15:11:36;99444.53;;;29.74;42.58
65175;BME280;51761;42.126;24.752;2022-09-09T15:14:07;99439.69;;;29.69;41.80
65175;BME280;51761;42.126;24.752;2022-09-09T15:16:33;99445.31;;;29.75;42.10
65175;BME280;51761;42.126;24.752;2022-09-09T15:19:00;99435.88;;;29.54;41.95
65175;BME280;51761;42.126;24.752;2022-09-09T15:21:32;99430.88;;;29.54;41.85
65175;BME280;51761;42.126;24.752;2022-09-09T15:23:58;99454.91;;;29.57;42.62
65175;BME280;51761;42.126;24.752;2022-09-09T15:26:25;99428.91;;;29.37;42.86
65175;BME280;51761;42.126;24.752;2022-09-09T15:28:51;99449.13;;;29.44;42.79
65175;BME280;51761;42.126;24.752;2022-09-09T15:31:22;99413.44;;;29.14;42.98